sensor_id;sensor_type;location;lat;lon;timestamp;P1;durP1;ratioP1;P2;durP2;ratioP2
18659;SDS011;9459;50.254;19.014;2023-03-23T00:00:12;19.45;;;12.30;;
18659;SDS011;9459;50.254;19.014;2023-03-23T00:03:02;22.83;;;12.85;;
18659;SDS011;9459;50.254;19.014;2023-03-23T00:05:29;15.73;;;10.95;;
18659;SDS011;9459;50.254;19.014;2023-03-23T00:07:56;19.35;;;10.75;;
18659;SDS011;9459;50.254;19.014;2023-03-23T00:10:24;16.20;;;10.52;;
18659;SDS011;9459;50.254;19.014;2023-03-23T00:12:52;15.63;;;10.13;;
18659;SDS011;9459;50.254;19.014;2023-03-23T00:15:22;16.65;;;10.32;;
18659;SDS011;9459;50.254;19.014;2023-03-23T00:17:50;16.27;;;10.40;;
18659;SDS011;9459;50.254;19.014;2023-03-23T00:20:19;15.85;;;11.00;;
18659;SDS011;9459;50.254;19.014;2023-03-23T00:22:49;15.73;;;10.00;;
18659;SDS011;9459;50.254;19.014;2023-03-23T00:25:17;15.45;;;11.18;;
18659;SDS011;9459;50.254;19.014;2023-03-23T00:27:44;18.80;;;11.00;;
18659;SDS011;9459;50.254;19.014;2023-03-23T00:30:11;22.70;;;12.45;;
18659;SDS011;9459;50.254;19.014;2023-03-23T00:32:39;17.10;;;10.90;;
18659;SDS011;9459;50.254;19.014;2023-03-23T00:35:06;21.35;;;14.15;;
18659;SDS011;9459;50.254;19.014;2023-03-23T00:37:36;23.02;;;14.45;;
18659;SDS011;9459;50.254;19.014;2023-03-23T00:40:03;19.33;;;12.88;;
18659;SDS011;9459;50.254;19.014;2023-03-23T00:42:35;22.45;;;15.07;;
18659;SDS011;9459;50.254;19.014;2023-03-23T00:45:04;20.05;;;13.68;;
18659;SDS011;9459;50.254;19.014;2023-03-23T00:47:36;20.55;;;14.27;;
18659;SDS011;9459;50.254;19.014;2023-03-23T00:50:03;20.85;;;13.75;;
18659;SDS011;9459;50.254;19.014;2023-03-23T00:52:32;20.58;;;14.00;;
18659;SDS011;9459;50.254;19.014;2023-03-23T00:55:00;22.23;;;14.07;;
18659;SDS011;9459;50.254;19.014;2023-03-23T00:57:28;22.25;;;13.93;;
18659;SDS011;9459;50.254;19.014;2023-03-23T00:59:55;21.25;;;13.85;;
18659;SDS011;9459;50.254;19.014;2023-03-23T01:02:23;24.38;;;16.90;;
18659;SDS011;9459;50.254;19.014;2023-03-23T01:04:51;20.55;;;14.02;;
18659;SDS011;9459;50.254;19.014;2023-03-23T01:07:19;19.67;;;13.25;;
18659;SDS011;9459;50.254;19.014;2023-03-23T01:09:49;20.27;;;14.27;;
18659;SDS011;9459;50.254;19.014;2023-03-23T01:12:20;18.60;;;12.43;;
18659;SDS011;9459;50.254;19.014;2023-03-23T01:14:49;18.20;;;12.40;;
18659;SDS011;9459;50.254;19.014;2023-03-23T01:17:17;19.38;;;11.85;;
18659;SDS011;9459;50.254;19.014;2023-03-23T01:19:46;17.40;;;12.15;;
18659;SDS011;9459;50.254;19.014;2023-03-23T01:22:14;18.08;;;12.57;;
18659;SDS011;9459;50.254;19.014;2023-03-23T01:24:41;17.80;;;11.10;;
18659;SDS011;9459;50.254;19.014;2023-03-23T01:27:09;19.23;;;11.68;;
18659;SDS011;9459;50.254;19.014;2023-03-23T01:29:37;16.02;;;11.48;;
18659;SDS011;9459;50.254;19.014;2023-03-23T01:32:05;18.58;;;11.77;;
18659;SDS011;9459;50.254;19.014;2023-03-23T01:34:32;16.30;;;12.38;;
18659;SDS011;9459;50.254;19.014;2023-03-23T01:37:00;15.52;;;11.18;;
18659;SDS011;9459;50.254;19.014;2023-03-23T01:39:27;16.10;;;10.80;;
18659;SDS011;9459;50.254;19.014;2023-03-23T01:41:55;15.57;;;10.82;;
18659;SDS011;9459;50.254;19.014;2023-03-23T01:47:43;16.70;;;11.52;;
18659;SDS011;9459;50.254;19.014;2023-03-23T01:50:11;16.15;;;11.40;;
18659;SDS011;9459;50.254;19.014;2023-03-23T01:52:39;15.45;;;11.25;;
18659;SDS011;9459;50.254;19.014;2023-03-23T01:55:07;17.42;;;11.07;;
18659;SDS011;9459;50.254;19.014;2023-03-23T01:57:35;16.08;;;10.52;;
18659;SDS011;9459;50.254;19.014;2023-03-23T02:00:03;14.70;;;11.07;;
18659;SDS011;9459;50.254;19.014;2023-03-23T02:02:40;14.70;;;10.50;;
18659;SDS011;9459;50.254;19.014;2023-03-23T02:05:10;15.52;;;11.20;;
18659;SDS011;9459;50.254;19.014;2023-03-23T02:07:39;14.63;;;11.27;;
18659;SDS011;9459;50.254;19.014;2023-03-23T02:10:07;16.05;;;11.07;;
18659;SDS011;9459;50.254;19.014;2023-03-23T02:12:35;14.13;;;10.60;;
18659;SDS011;9459;50.254;19.014;2023-03-23T02:15:02;16.95;;;12.05;;
18659;SDS011;9459;50.254;19.014;2023-03-23T02:17:32;16.45;;;11.70;;
18659;SDS011;9459;50.254;19.014;2023-03-23T02:20:06;19.83;;;12.48;;
18659;SDS011;9459;50.254;19.014;2023-03-23T02:22:50;15.93;;;11.13;;
18659;SDS011;9459;50.254;19.014;2023-03-23T02:25:33;16.95;;;12.15;;
18659;SDS011;9459;50.254;19.014;2023-03-23T02:28:23;18.10;;;11.25;;
18659;SDS011;9459;50.254;19.014;2023-03-23T02:31:00;14.85;;;11.52;;
18659;SDS011;9459;50.254;19.014;2023-03-23T02:33:37;16.30;;;11.02;;
18659;SDS011;9459;50.254;19.014;2023-03-23T02:36:10;15.70;;;11.05;;
18659;SDS011;9459;50.254;19.014;2023-03-23T02:38:42;16.73;;;10.90;;
18659;SDS011;9459;50.254;19.014;2023-03-23T02:41:17;15.13;;;11.10;;
18659;SDS011;9459;50.254;19.014;2023-03-23T02:43:45;15.82;;;10.38;;
18659;SDS011;9459;50.254;19.014;2023-03-23T02:46:12;16.98;;;11.00;;
18659;SDS011;9459;50.254;19.014;2023-03-23T02:48:43;13.45;;;9.57;;
18659;SDS011;9459;50.254;19.014;2023-03-23T02:51:11;14.95;;;11.00;;
18659;SDS011;9459;50.254;19.014;2023-03-23T02:53:40;14.13;;;10.38;;
18659;SDS011;9459;50.254;19.014;2023-03-23T02:56:08;13.00;;;9.90;;
18659;SDS011;9459;50.254;19.014;2023-03-23T02:58:37;15.82;;;10.63;;
18659;SDS011;9459;50.254;19.014;2023-03-23T03:01:15;14.88;;;10.75;;
18659;SDS011;9459;50.254;19.014;2023-03-23T03:04:01;15.23;;;9.98;;
18659;SDS011;9459;50.254;19.014;2023-03-23T03:06:32;16.40;;;10.40;;
18659;SDS011;9459;50.254;19.014;2023-03-23T03:09:01;14.57;;;9.93;;
18659;SDS011;9459;50.254;19.014;2023-03-23T03:11:31;14.32;;;9.95;;
18659;SDS011;9459;50.254;19.014;2023-03-23T03:14:02;15.20;;;10.23;;
18659;SDS011;9459;50.254;19.014;2023-03-23T03:16:32;14.63;;;10.38;;
18659;SDS011;9459;50.254;19.014;2023-03-23T03:19:03;13.48;;;9.63;;
18659;SDS011;9459;50.254;19.014;2023-03-23T03:21:33;13.40;;;9.90;;
18659;SDS011;9459;50.254;19.014;2023-03-23T03:24:03;14.48;;;9.50;;
18659;SDS011;9459;50.254;19.014;2023-03-23T03:26:33;15.40;;;9.25;;
18659;SDS011;9459;50.254;19.014;2023-03-23T03:29:01;14.15;;;9.15;;
18659;SDS011;9459;50.254;19.014;2023-03-23T03:31:29;14.02;;;9.45;;
18659;SDS011;9459;50.254;19.014;2023-03-23T03:33:58;14.60;;;8.70;;
18659;SDS011;9459;50.254;19.014;2023-03-23T03:36:28;14.38;;;9.15;;
18659;SDS011;9459;50.254;19.014;2023-03-23T03:39:00;13.82;;;9.02;;
18659;SDS011;9459;50.254;19.014;2023-03-23T03:41:32;14.85;;;8.88;;
18659;SDS011;9459;50.254;19.014;2023-03-23T03:43:59;12.40;;;8.57;;
18659;SDS011;9459;50.254;19.014;2023-03-23T03:46:26;12.05;;;8.60;;
18659;SDS011;9459;50.254;19.014;2023-03-23T03:48:55;15.82;;;8.70;;
18659;SDS011;9459;50.254;19.014;2023-03-23T03:51:23;10.63;;;7.78;;
18659;SDS011;9459;50.254;19.014;2023-03-23T03:53:52;11.23;;;8.25;;
18659;SDS011;9459;50.254;19.014;2023-03-23T03:56:19;10.73;;;8.00;;
18659;SDS011;9459;50.254;19.014;2023-03-23T03:58:48;13.15;;;8.07;;
18659;SDS011;9459;50.254;19.014;2023-03-23T04:01:15;15.20;;;8.77;;
18659;SDS011;9459;50.254;19.014;2023-03-23T04:03:43;11.27;;;7.80;;
18659;SDS011;9459;50.254;19.014;2023-03-23T04:06:11;10.98;;;7.93;;
18659;SDS011;9459;50.254;19.014;2023-03-23T04:08:39;11.90;;;8.27;;
18659;SDS011;9459;50.254;19.014;2023-03-23T04:11:08;12.48;;;8.07;;
18659;SDS011;9459;50.254;19.014;2023-03-23T04:13:36;11.70;;;8.18;;
18659;SDS011;9459;50.254;19.014;2023-03-23T04:16:04;11.93;;;7.53;;
18659;SDS011;9459;50.254;19.014;2023-03-23T04:18:32;12.82;;;7.68;;
18659;SDS011;9459;50.254;19.014;2023-03-23T04:21:00;10.30;;;7.05;;
18659;SDS011;9459;50.254;19.014;2023-03-23T04:23:29;10.43;;;7.70;;
18659;SDS011;9459;50.254;19.014;2023-03-23T04:25:59;12.23;;;7.68;;
18659;SDS011;9459;50.254;19.014;2023-03-23T04:28:28;14.18;;;7.75;;
18659;SDS011;9459;50.254;19.014;2023-03-23T04:30:59;9.70;;;7.07;;
18659;SDS011;9459;50.254;19.014;2023-03-23T04:33:28;11.30;;;7.60;;
18659;SDS011;9459;50.254;19.014;2023-03-23T04:35:56;12.05;;;7.20;;
18659;SDS011;9459;50.254;19.014;2023-03-23T04:38:28;10.80;;;7.78;;
18659;SDS011;9459;50.254;19.014;2023-03-23T04:40:58;12.73;;;7.95;;
18659;SDS011;9459;50.254;19.014;2023-03-23T04:43:29;10.63;;;7.50;;
18659;SDS011;9459;50.254;19.014;2023-03-23T04:45:58;12.13;;;7.85;;
18659;SDS011;9459;50.254;19.014;2023-03-23T04:48:29;11.60;;;7.80;;
18659;SDS011;9459;50.254;19.014;2023-03-23T04:50:58;12.20;;;8.13;;
18659;SDS011;9459;50.254;19.014;2023-03-23T04:53:28;11.55;;;7.57;;
18659;SDS011;9459;50.254;19.014;2023-03-23T04:55:55;13.05;;;8.57;;
18659;SDS011;9459;50.254;19.014;2023-03-23T04:58:23;12.05;;;8.43;;
18659;SDS011;9459;50.254;19.014;2023-03-23T05:00:52;10.95;;;7.45;;
18659;SDS011;9459;50.254;19.014;2023-03-23T05:03:20;11.77;;;7.78;;
18659;SDS011;9459;50.254;19.014;2023-03-23T05:05:47;9.70;;;6.95;;
18659;SDS011;9459;50.254;19.014;2023-03-23T05:08:18;13.35;;;8.13;;
18659;SDS011;9459;50.254;19.014;2023-03-23T05:10:49;11.55;;;6.78;;
18659;SDS011;9459;50.254;19.014;2023-03-23T05:13:18;14.40;;;8.35;;
18659;SDS011;9459;50.254;19.014;2023-03-23T05:15:46;11.15;;;7.22;;
18659;SDS011;9459;50.254;19.014;2023-03-23T05:18:15;11.50;;;7.72;;
18659;SDS011;9459;50.254;19.014;2023-03-23T05:20:42;12.45;;;8.00;;
18659;SDS011;9459;50.254;19.014;2023-03-23T05:23:12;13.85;;;7.53;;
18659;SDS011;9459;50.254;19.014;2023-03-23T05:25:40;10.50;;;7.28;;
18659;SDS011;9459;50.254;19.014;2023-03-23T05:28:08;13.68;;;8.13;;
18659;SDS011;9459;50.254;19.014;2023-03-23T05:30:36;11.88;;;7.22;;
18659;SDS011;9459;50.254;19.014;2023-03-23T05:33:04;13.00;;;7.78;;
18659;SDS011;9459;50.254;19.014;2023-03-23T05:35:33;9.85;;;7.40;;
18659;SDS011;9459;50.254;19.014;2023-03-23T05:38:00;10.85;;;7.30;;
18659;SDS011;9459;50.254;19.014;2023-03-23T05:40:28;9.70;;;8.10;;
18659;SDS011;9459;50.254;19.014;2023-03-23T05:42:56;10.40;;;7.32;;
18659;SDS011;9459;50.254;19.014;2023-03-23T05:45:24;16.80;;;10.98;;
18659;SDS011;9459;50.254;19.014;2023-03-23T05:47:52;13.55;;;9.80;;
18659;SDS011;9459;50.254;19.014;2023-03-23T05:50:19;13.55;;;8.10;;
18659;SDS011;9459;50.254;19.014;2023-03-23T05:52:48;12.95;;;8.00;;
18659;SDS011;9459;50.254;19.014;2023-03-23T05:55:17;13.23;;;9.77;;
18659;SDS011;9459;50.254;19.014;2023-03-23T05:57:45;11.52;;;8.20;;
18659;SDS011;9459;50.254;19.014;2023-03-23T06:00:12;12.32;;;8.60;;
18659;SDS011;9459;50.254;19.014;2023-03-23T06:02:41;12.90;;;9.05;;
18659;SDS011;9459;50.254;19.014;2023-03-23T06:05:09;11.68;;;7.72;;
18659;SDS011;9459;50.254;19.014;2023-03-23T06:07:37;10.25;;;7.00;;
18659;SDS011;9459;50.254;19.014;2023-03-23T06:10:06;10.73;;;7.53;;
18659;SDS011;9459;50.254;19.014;2023-03-23T06:12:35;11.98;;;7.05;;
18659;SDS011;9459;50.254;19.014;2023-03-23T06:15:02;8.27;;;6.15;;
18659;SDS011;9459;50.254;19.014;2023-03-23T06:17:32;12.23;;;6.70;;
18659;SDS011;9459;50.254;19.014;2023-03-23T06:19:59;9.60;;;6.20;;
18659;SDS011;9459;50.254;19.014;2023-03-23T06:22:27;8.95;;;6.43;;
18659;SDS011;9459;50.254;19.014;2023-03-23T06:24:54;8.20;;;6.13;;
18659;SDS011;9459;50.254;19.014;2023-03-23T06:27:24;8.45;;;6.30;;
18659;SDS011;9459;50.254;19.014;2023-03-23T06:29:51;9.63;;;6.32;;
18659;SDS011;9459;50.254;19.014;2023-03-23T06:32:18;10.32;;;6.43;;
18659;SDS011;9459;50.254;19.014;2023-03-23T06:34:46;9.90;;;6.07;;
18659;SDS011;9459;50.254;19.014;2023-03-23T06:37:14;8.63;;;5.82;;
18659;SDS011;9459;50.254;19.014;2023-03-23T06:39:41;8.77;;;6.30;;
18659;SDS011;9459;50.254;19.014;2023-03-23T06:42:09;9.05;;;5.72;;
18659;SDS011;9459;50.254;19.014;2023-03-23T06:44:38;7.88;;;6.10;;
18659;SDS011;9459;50.254;19.014;2023-03-23T06:47:05;8.77;;;5.45;;
18659;SDS011;9459;50.254;19.014;2023-03-23T06:49:33;9.75;;;6.55;;
18659;SDS011;9459;50.254;19.014;2023-03-23T06:52:01;8.43;;;6.07;;
18659;SDS011;9459;50.254;19.014;2023-03-23T06:54:29;10.35;;;6.20;;
18659;SDS011;9459;50.254;19.014;2023-03-23T06:56:56;10.82;;;6.65;;
18659;SDS011;9459;50.254;19.014;2023-03-23T06:59:23;8.85;;;6.15;;
18659;SDS011;9459;50.254;19.014;2023-03-23T07:01:53;8.40;;;6.28;;
18659;SDS011;9459;50.254;19.014;2023-03-23T07:04:20;11.55;;;7.07;;
18659;SDS011;9459;50.254;19.014;2023-03-23T07:06:49;21.13;;;9.80;;
18659;SDS011;9459;50.254;19.014;2023-03-23T07:09:16;58.20;;;29.08;;
18659;SDS011;9459;50.254;19.014;2023-03-23T07:11:44;41.60;;;22.88;;
18659;SDS011;9459;50.254;19.014;2023-03-23T07:14:13;16.80;;;11.35;;
18659;SDS011;9459;50.254;19.014;2023-03-23T07:16:40;15.98;;;9.88;;
18659;SDS011;9459;50.254;19.014;2023-03-23T07:19:09;15.25;;;10.55;;
18659;SDS011;9459;50.254;19.014;2023-03-23T07:21:36;19.67;;;11.63;;
18659;SDS011;9459;50.254;19.014;2023-03-23T07:24:04;17.02;;;9.57;;
18659;SDS011;9459;50.254;19.014;2023-03-23T07:26:32;18.45;;;9.25;;
18659;SDS011;9459;50.254;19.014;2023-03-23T07:28:59;15.63;;;9.35;;
18659;SDS011;9459;50.254;19.014;2023-03-23T07:31:26;14.48;;;7.90;;
18659;SDS011;9459;50.254;19.014;2023-03-23T07:33:53;9.35;;;7.03;;
18659;SDS011;9459;50.254;19.014;2023-03-23T07:36:22;9.75;;;6.82;;
18659;SDS011;9459;50.254;19.014;2023-03-23T07:38:50;13.50;;;6.97;;
18659;SDS011;9459;50.254;19.014;2023-03-23T07:41:18;11.05;;;6.55;;
18659;SDS011;9459;50.254;19.014;2023-03-23T07:43:45;13.25;;;7.47;;
18659;SDS011;9459;50.254;19.014;2023-03-23T07:46:13;13.48;;;9.80;;
18659;SDS011;9459;50.254;19.014;2023-03-23T07:48:41;12.70;;;7.85;;
18659;SDS011;9459;50.254;19.014;2023-03-23T07:51:09;10.50;;;7.68;;
18659;SDS011;9459;50.254;19.014;2023-03-23T07:53:38;9.73;;;7.07;;
18659;SDS011;9459;50.254;19.014;2023-03-23T07:56:05;11.23;;;8.15;;
18659;SDS011;9459;50.254;19.014;2023-03-23T07:58:33;12.13;;;7.47;;
18659;SDS011;9459;50.254;19.014;2023-03-23T08:01:01;10.57;;;6.85;;
18659;SDS011;9459;50.254;19.014;2023-03-23T08:03:28;13.57;;;9.18;;
18659;SDS011;9459;50.254;19.014;2023-03-23T08:05:57;11.48;;;7.85;;
18659;SDS011;9459;50.254;19.014;2023-03-23T08:08:24;10.20;;;7.10;;
18659;SDS011;9459;50.254;19.014;2023-03-23T08:10:53;9.15;;;6.55;;
18659;SDS011;9459;50.254;19.014;2023-03-23T08:13:20;8.55;;;5.72;;
18659;SDS011;9459;50.254;19.014;2023-03-23T08:15:48;8.70;;;5.65;;
18659;SDS011;9459;50.254;19.014;2023-03-23T08:18:15;6.93;;;5.10;;
18659;SDS011;9459;50.254;19.014;2023-03-23T08:20:43;8.15;;;5.18;;
18659;SDS011;9459;50.254;19.014;2023-03-23T08:23:11;8.27;;;5.85;;
18659;SDS011;9459;50.254;19.014;2023-03-23T08:25:38;7.50;;;4.72;;
18659;SDS011;9459;50.254;19.014;2023-03-23T08:28:07;9.02;;;5.32;;
18659;SDS011;9459;50.254;19.014;2023-03-23T08:30:34;7.47;;;4.97;;
18659;SDS011;9459;50.254;19.014;2023-03-23T08:33:03;7.57;;;6.22;;
18659;SDS011;9459;50.254;19.014;2023-03-23T08:35:32;6.63;;;5.55;;
18659;SDS011;9459;50.254;19.014;2023-03-23T08:37:59;10.00;;;5.60;;
18659;SDS011;9459;50.254;19.014;2023-03-23T08:40:27;9.32;;;5.68;;
18659;SDS011;9459;50.254;19.014;2023-03-23T08:42:55;9.93;;;5.93;;
18659;SDS011;9459;50.254;19.014;2023-03-23T08:45:24;8.07;;;6.32;;
18659;SDS011;9459;50.254;19.014;2023-03-23T08:47:52;8.90;;;5.80;;
18659;SDS011;9459;50.254;19.014;2023-03-23T08:50:22;8.18;;;5.40;;
18659;SDS011;9459;50.254;19.014;2023-03-23T08:52:50;7.95;;;5.43;;
18659;SDS011;9459;50.254;19.014;2023-03-23T08:55:19;7.05;;;4.90;;
18659;SDS011;9459;50.254;19.014;2023-03-23T08:57:47;11.10;;;5.15;;
18659;SDS011;9459;50.254;19.014;2023-03-23T09:00:17;8.20;;;5.25;;
18659;SDS011;9459;50.254;19.014;2023-03-23T09:02:53;8.40;;;4.97;;
18659;SDS011;9459;50.254;19.014;2023-03-23T09:05:22;6.82;;;4.55;;
18659;SDS011;9459;50.254;19.014;2023-03-23T09:07:51;8.32;;;4.47;;
18659;SDS011;9459;50.254;19.014;2023-03-23T09:10:19;7.90;;;4.95;;
18659;SDS011;9459;50.254;19.014;2023-03-23T09:12:47;8.25;;;5.22;;
18659;SDS011;9459;50.254;19.014;2023-03-23T09:15:16;9.68;;;5.45;;
18659;SDS011;9459;50.254;19.014;2023-03-23T09:17:44;8.85;;;4.35;;
18659;SDS011;9459;50.254;19.014;2023-03-23T09:20:15;6.75;;;4.63;;
18659;SDS011;9459;50.254;19.014;2023-03-23T09:22:45;8.50;;;5.00;;
18659;SDS011;9459;50.254;19.014;2023-03-23T09:25:14;7.55;;;4.85;;
18659;SDS011;9459;50.254;19.014;2023-03-23T09:27:44;6.22;;;4.22;;
18659;SDS011;9459;50.254;19.014;2023-03-23T09:30:15;8.13;;;5.40;;
18659;SDS011;9459;50.254;19.014;2023-03-23T09:32:44;9.80;;;5.20;;
18659;SDS011;9459;50.254;19.014;2023-03-23T09:35:15;7.85;;;4.93;;
18659;SDS011;9459;50.254;19.014;2023-03-23T09:37:43;8.85;;;5.70;;
18659;SDS011;9459;50.254;19.014;2023-03-23T09:40:13;8.30;;;5.45;;
18659;SDS011;9459;50.254;19.014;2023-03-23T09:42:48;6.97;;;4.60;;
18659;SDS011;9459;50.254;19.014;2023-03-23T09:45:36;8.00;;;5.35;;
18659;SDS011;9459;50.254;19.014;2023-03-23T09:48:19;11.90;;;5.75;;
18659;SDS011;9459;50.254;19.014;2023-03-23T09:51:11;8.20;;;4.80;;
18659;SDS011;9459;50.254;19.014;2023-03-23T09:53:43;8.23;;;5.45;;
18659;SDS011;9459;50.254;19.014;2023-03-23T09:56:15;8.07;;;4.50;;
18659;SDS011;9459;50.254;19.014;2023-03-23T09:58:45;10.20;;;5.15;;
18659;SDS011;9459;50.254;19.014;2023-03-23T10:01:15;8.52;;;5.07;;
18659;SDS011;9459;50.254;19.014;2023-03-23T10:03:46;9.05;;;5.05;;
18659;SDS011;9459;50.254;19.014;2023-03-23T10:06:16;5.88;;;4.38;;
18659;SDS011;9459;50.254;19.014;2023-03-23T10:08:45;10.30;;;5.10;;
18659;SDS011;9459;50.254;19.014;2023-03-23T10:11:17;8.65;;;5.50;;
18659;SDS011;9459;50.254;19.014;2023-03-23T10:14:00;10.20;;;4.68;;
18659;SDS011;9459;50.254;19.014;2023-03-23T10:16:43;6.47;;;4.40;;
18659;SDS011;9459;50.254;19.014;2023-03-23T10:19:18;7.85;;;4.47;;
18659;SDS011;9459;50.254;19.014;2023-03-23T10:21:50;7.68;;;3.83;;
18659;SDS011;9459;50.254;19.014;2023-03-23T10:24:20;7.60;;;4.57;;
18659;SDS011;9459;50.254;19.014;2023-03-23T10:26:52;6.32;;;4.30;;
18659;SDS011;9459;50.254;19.014;2023-03-23T10:29:24;7.28;;;4.80;;
18659;SDS011;9459;50.254;19.014;2023-03-23T10:31:56;7.30;;;4.53;;
18659;SDS011;9459;50.254;19.014;2023-03-23T10:34:28;7.47;;;4.75;;
18659;SDS011;9459;50.254;19.014;2023-03-23T10:37:01;7.68;;;4.40;;
18659;SDS011;9459;50.254;19.014;2023-03-23T10:39:32;7.43;;;4.30;;
18659;SDS011;9459;50.254;19.014;2023-03-23T10:42:08;5.53;;;3.40;;
18659;SDS011;9459;50.254;19.014;2023-03-23T10:44:35;5.95;;;3.42;;
18659;SDS011;9459;50.254;19.014;2023-03-23T10:47:04;8.25;;;3.90;;
18659;SDS011;9459;50.254;19.014;2023-03-23T10:49:34;6.75;;;3.20;;
18659;SDS011;9459;50.254;19.014;2023-03-23T10:52:10;6.72;;;3.50;;
18659;SDS011;9459;50.254;19.014;2023-03-23T10:54:46;8.80;;;4.03;;
18659;SDS011;9459;50.254;19.014;2023-03-23T10:57:20;5.72;;;3.42;;
18659;SDS011;9459;50.254;19.014;2023-03-23T10:59:50;6.32;;;3.55;;
18659;SDS011;9459;50.254;19.014;2023-03-23T11:02:19;6.07;;;3.80;;
18659;SDS011;9459;50.254;19.014;2023-03-23T11:04:53;4.85;;;3.10;;
18659;SDS011;9459;50.254;19.014;2023-03-23T11:07:27;7.35;;;3.80;;
18659;SDS011;9459;50.254;19.014;2023-03-23T11:09:56;4.47;;;3.20;;
18659;SDS011;9459;50.254;19.014;2023-03-23T11:12:25;6.70;;;3.80;;
18659;SDS011;9459;50.254;19.014;2023-03-23T11:14:52;5.80;;;3.03;;
18659;SDS011;9459;50.254;19.014;2023-03-23T11:17:34;4.53;;;3.08;;
18659;SDS011;9459;50.254;19.014;2023-03-23T11:20:09;5.88;;;3.40;;
18659;SDS011;9459;50.254;19.014;2023-03-23T11:22:39;7.05;;;3.20;;
18659;SDS011;9459;50.254;19.014;2023-03-23T11:25:09;6.03;;;3.50;;
18659;SDS011;9459;50.254;19.014;2023-03-23T11:27:37;9.07;;;3.27;;
18659;SDS011;9459;50.254;19.014;2023-03-23T11:30:08;6.07;;;3.65;;
18659;SDS011;9459;50.254;19.014;2023-03-23T11:32:37;6.90;;;3.50;;
18659;SDS011;9459;50.254;19.014;2023-03-23T11:35:16;5.13;;;3.05;;
18659;SDS011;9459;50.254;19.014;2023-03-23T11:37:49;6.80;;;3.25;;
18659;SDS011;9459;50.254;19.014;2023-03-23T11:40:18;5.40;;;3.30;;
18659;SDS011;9459;50.254;19.014;2023-03-23T11:42:48;4.93;;;3.35;;
18659;SDS011;9459;50.254;19.014;2023-03-23T11:45:18;6.22;;;3.60;;
18659;SDS011;9459;50.254;19.014;2023-03-23T11:50:20;7.60;;;3.47;;
18659;SDS011;9459;50.254;19.014;2023-03-23T11:52:54;6.43;;;3.65;;
18659;SDS011;9459;50.254;19.014;2023-03-23T11:55:28;5.82;;;3.85;;
18659;SDS011;9459;50.254;19.014;2023-03-23T11:58:13;5.40;;;3.33;;
18659;SDS011;9459;50.254;19.014;2023-03-23T12:00:44;5.10;;;3.47;;
18659;SDS011;9459;50.254;19.014;2023-03-23T12:03:25;4.18;;;3.10;;
18659;SDS011;9459;50.254;19.014;2023-03-23T12:06:00;4.93;;;3.42;;
18659;SDS011;9459;50.254;19.014;2023-03-23T12:08:38;8.23;;;3.92;;
18659;SDS011;9459;50.254;19.014;2023-03-23T12:11:14;7.07;;;3.63;;
18659;SDS011;9459;50.254;19.014;2023-03-23T12:13:49;4.55;;;3.00;;
18659;SDS011;9459;50.254;19.014;2023-03-23T12:16:29;3.95;;;2.83;;
18659;SDS011;9459;50.254;19.014;2023-03-23T12:19:02;5.68;;;3.30;;
18659;SDS011;9459;50.254;19.014;2023-03-23T12:21:42;5.35;;;3.63;;
18659;SDS011;9459;50.254;19.014;2023-03-23T12:24:29;8.48;;;4.03;;
18659;SDS011;9459;50.254;19.014;2023-03-23T12:27:03;6.20;;;3.20;;
18659;SDS011;9459;50.254;19.014;2023-03-23T12:29:44;6.80;;;4.35;;
18659;SDS011;9459;50.254;19.014;2023-03-23T12:32:23;6.63;;;3.35;;
18659;SDS011;9459;50.254;19.014;2023-03-23T12:35:02;5.38;;;2.88;;
18659;SDS011;9459;50.254;19.014;2023-03-23T12:37:40;5.80;;;3.35;;
18659;SDS011;9459;50.254;19.014;2023-03-23T12:40:22;5.45;;;3.17;;
18659;SDS011;9459;50.254;19.014;2023-03-23T12:43:09;8.07;;;3.63;;
18659;SDS011;9459;50.254;19.014;2023-03-23T12:45:48;5.30;;;3.35;;
18659;SDS011;9459;50.254;19.014;2023-03-23T12:48:26;4.78;;;2.78;;
18659;SDS011;9459;50.254;19.014;2023-03-23T12:51:12;4.30;;;2.78;;
18659;SDS011;9459;50.254;19.014;2023-03-23T12:53:46;7.15;;;3.47;;
18659;SDS011;9459;50.254;19.014;2023-03-23T12:56:18;5.60;;;3.25;;
18659;SDS011;9459;50.254;19.014;2023-03-23T12:58:50;5.82;;;3.42;;
18659;SDS011;9459;50.254;19.014;2023-03-23T13:01:23;7.25;;;3.50;;
18659;SDS011;9459;50.254;19.014;2023-03-23T13:03:54;5.35;;;2.67;;
18659;SDS011;9459;50.254;19.014;2023-03-23T13:06:32;6.15;;;2.92;;
18659;SDS011;9459;50.254;19.014;2023-03-23T13:09:03;4.55;;;3.13;;
18659;SDS011;9459;50.254;19.014;2023-03-23T13:11:36;5.60;;;2.80;;
18659;SDS011;9459;50.254;19.014;2023-03-23T13:14:16;5.97;;;3.17;;
18659;SDS011;9459;50.254;19.014;2023-03-23T13:16:50;7.40;;;4.43;;
18659;SDS011;9459;50.254;19.014;2023-03-23T13:19:23;14.13;;;11.80;;
18659;SDS011;9459;50.254;19.014;2023-03-23T13:21:58;9.65;;;8.75;;
18659;SDS011;9459;50.254;19.014;2023-03-23T13:24:29;6.25;;;3.53;;
18659;SDS011;9459;50.254;19.014;2023-03-23T13:27:01;7.90;;;2.70;;
18659;SDS011;9459;50.254;19.014;2023-03-23T13:29:28;6.32;;;2.80;;
18659;SDS011;9459;50.254;19.014;2023-03-23T13:32:04;5.68;;;2.88;;
18659;SDS011;9459;50.254;19.014;2023-03-23T13:34:32;4.75;;;2.85;;
18659;SDS011;9459;50.254;19.014;2023-03-23T13:37:02;4.32;;;2.88;;
18659;SDS011;9459;50.254;19.014;2023-03-23T13:39:31;5.03;;;2.90;;
18659;SDS011;9459;50.254;19.014;2023-03-23T13:42:04;4.88;;;2.85;;
18659;SDS011;9459;50.254;19.014;2023-03-23T13:44:55;3.80;;;2.65;;
18659;SDS011;9459;50.254;19.014;2023-03-23T13:47:27;4.88;;;2.53;;
18659;SDS011;9459;50.254;19.014;2023-03-23T13:49:57;6.30;;;2.78;;
18659;SDS011;9459;50.254;19.014;2023-03-23T13:52:36;5.85;;;2.55;;
18659;SDS011;9459;50.254;19.014;2023-03-23T13:55:18;4.68;;;2.58;;
18659;SDS011;9459;50.254;19.014;2023-03-23T13:57:50;4.32;;;2.55;;
18659;SDS011;9459;50.254;19.014;2023-03-23T14:00:26;3.85;;;2.55;;
18659;SDS011;9459;50.254;19.014;2023-03-23T14:03:01;4.10;;;2.90;;
18659;SDS011;9459;50.254;19.014;2023-03-23T14:05:31;6.22;;;2.80;;
18659;SDS011;9459;50.254;19.014;2023-03-23T14:08:14;7.35;;;2.55;;
18659;SDS011;9459;50.254;19.014;2023-03-23T14:10:53;4.72;;;2.80;;
18659;SDS011;9459;50.254;19.014;2023-03-23T14:13:28;4.10;;;2.78;;
18659;SDS011;9459;50.254;19.014;2023-03-23T14:15:58;4.53;;;3.20;;
18659;SDS011;9459;50.254;19.014;2023-03-23T14:18:29;6.88;;;3.67;;
18659;SDS011;9459;50.254;19.014;2023-03-23T14:20:59;4.25;;;3.17;;
18659;SDS011;9459;50.254;19.014;2023-03-23T14:23:27;5.20;;;3.60;;
18659;SDS011;9459;50.254;19.014;2023-03-23T14:25:59;5.97;;;3.50;;
18659;SDS011;9459;50.254;19.014;2023-03-23T14:28:37;4.53;;;3.47;;
18659;SDS011;9459;50.254;19.014;2023-03-23T14:31:08;6.07;;;3.42;;
18659;SDS011;9459;50.254;19.014;2023-03-23T14:33:41;6.28;;;3.42;;
18659;SDS011;9459;50.254;19.014;2023-03-23T14:36:09;5.82;;;3.08;;
18659;SDS011;9459;50.254;19.014;2023-03-23T14:38:36;4.35;;;3.13;;
18659;SDS011;9459;50.254;19.014;2023-03-23T14:41:05;5.95;;;3.38;;
18659;SDS011;9459;50.254;19.014;2023-03-23T14:43:34;5.80;;;3.10;;
18659;SDS011;9459;50.254;19.014;2023-03-23T14:46:05;6.50;;;3.55;;
18659;SDS011;9459;50.254;19.014;2023-03-23T14:48:33;11.05;;;8.38;;
18659;SDS011;9459;50.254;19.014;2023-03-23T14:51:01;7.53;;;3.60;;
18659;SDS011;9459;50.254;19.014;2023-03-23T14:53:31;3.90;;;2.92;;
18659;SDS011;9459;50.254;19.014;2023-03-23T14:56:01;5.10;;;3.40;;
18659;SDS011;9459;50.254;19.014;2023-03-23T14:58:30;7.22;;;3.58;;
18659;SDS011;9459;50.254;19.014;2023-03-23T15:01:00;6.03;;;3.50;;
18659;SDS011;9459;50.254;19.014;2023-03-23T15:03:33;7.90;;;4.38;;